Time,TemperatureF,DewpointF,PressureIn,WindDirection,WindDirectionDegrees,WindSpeedMPH,WindSpeedGustMPH,Humidity,HourlyPrecipIn,Conditions,Clouds,dailyrainin,SoftwareType,DateUTC
2013-04-17 00:11:00,54.9,-44.0,29.99,SSW,202,0.0,-999.0,1,-99.99,,,0.00,Acu-Link.com,2013-04-17 04:11:00,
2013-04-17 00:26:00,54.9,5.0,29.98,SSW,202,0.0,-999.0,13,-99.99,,,0.00,Acu-Link.com,2013-04-17 04:26:00,
2013-04-17 00:42:00,54.9,49.5,29.99,WSW,247,0.0,-999.0,82,-99.99,,,0.00,Acu-Link.com,2013-04-17 04:42:00,
2013-04-17 00:57:00,55.0,-43.9,29.99,SW,225,0.0,-999.0,1,-99.99,,,0.00,Acu-Link.com,2013-04-17 04:57:00,
2013-04-17 01:12:00,55.2,-43.8,29.98,SW,225,0.0,-999.0,1,-99.99,,,0.00,Acu-Link.com,2013-04-17 05:12:00,
2013-04-17 01:28:00,55.4,-18.7,29.99,South,180,0.0,-999.0,4,-99.99,,,0.00,Acu-Link.com,2013-04-17 05:28:00,
2013-04-17 01:43:00,55.4,-43.7,29.97,SW,225,3.2,-999.0,1,-99.99,,,0.00,Acu-Link.com,2013-04-17 05:43:00,
2013-04-17 01:58:00,55.9,-43.3,29.97,SSW,202,4.7,-999.0,1,-99.99,,,0.00,Acu-Link.com,2013-04-17 05:58:00,
2013-04-17 02:14:00,55.9,-43.3,29.98,WSW,247,0.0,-999.0,1,-99.99,,,0.00,Acu-Link.com,2013-04-17 06:14:00,
2013-04-17 02:29:00,56.1,-43.2,29.97,West,270,0.0,-999.0,1,-99.99,,,0.00,Acu-Link.com,2013-04-17 06:29:00,
2013-04-17 02:44:00,56.1,-43.2,29.97,SSW,202,0.0,-999.0,1,-99.99,,,0.00,Acu-Link.com,2013-04-17 06:44:00,
2013-04-17 02:59:00,56.3,-43.1,29.96,West,270,0.0,-999.0,1,-99.99,,,0.00,Acu-Link.com,2013-04-17 06:59:00,
2013-04-17 03:15:00,56.1,-43.2,29.97,West,270,0.0,-999.0,1,-99.99,,,0.00,Acu-Link.com,2013-04-17 07:15:00,
2013-04-17 03:30:00,56.7,-42.9,29.97,West,270,0.0,-999.0,1,-99.99,,,0.00,Acu-Link.com,2013-04-17 07:30:00,
2013-04-17 03:45:00,56.8,0.8,29.97,NNE,22,0.0,-999.0,10,-99.99,,,0.00,Acu-Link.com,2013-04-17 07:45:00,
2013-04-17 04:01:00,56.7,-42.9,29.97,NNW,337,6.8,-999.0,1,-99.99,,,0.00,Acu-Link.com,2013-04-17 08:01:00,
2013-04-17 04:16:00,53.4,-32.9,29.99,ENE,67,5.3,-999.0,2,-99.99,,,0.01,Acu-Link.com,2013-04-17 08:16:00,
2013-04-17 04:31:00,51.6,-46.0,29.98,NE,45,2.2,-999.0,1,-99.99,,,0.01,Acu-Link.com,2013-04-17 08:31:00,
2013-04-17 04:47:00,51.1,10.3,29.99,North,0,0.0,-999.0,19,-99.99,,,0.01,Acu-Link.com,2013-04-17 08:47:00,
2013-04-17 05:02:00,50.7,42.7,30.00,NE,45,0.0,-999.0,74,-99.99,,,0.01,Acu-Link.com,2013-04-17 09:02:00,
2013-04-17 05:17:00,50.7,1.7,29.99,ENE,67,0.0,-999.0,13,-99.99,,,0.01,Acu-Link.com,2013-04-17 09:17:00,
2013-04-17 05:32:00,50.7,29.0,29.99,East,90,1.7,-999.0,43,-99.99,,,0.01,Acu-Link.com,2013-04-17 09:32:00,
2013-04-17 05:48:00,50.7,39.4,30.00,North,0,0.0,-999.0,65,-99.99,,,0.01,Acu-Link.com,2013-04-17 09:48:00,
2013-04-17 06:03:00,50.7,43.8,29.99,WNW,292,0.0,-999.0,77,-99.99,,,0.01,Acu-Link.com,2013-04-17 10:03:00,
2013-04-17 06:18:00,50.7,49.9,30.01,NNW,337,0.0,-999.0,97,-99.99,,,0.01,Acu-Link.com,2013-04-17 10:18:00,
2013-04-17 06:34:00,50.7,49.3,30.01,North,0,2.2,-999.0,95,-99.99,,,0.01,Acu-Link.com,2013-04-17 10:34:00,
2013-04-17 06:49:00,50.7,50.2,30.01,NW,315,0.0,-999.0,98,-99.99,,,0.01,Acu-Link.com,2013-04-17 10:49:00,
2013-04-17 07:04:00,50.5,48.6,30.04,ENE,67,0.0,-999.0,93,-99.99,,,0.01,Acu-Link.com,2013-04-17 11:04:00,
2013-04-17 07:20:00,50.4,49.9,30.04,East,90,2.2,-999.0,98,-99.99,,,0.01,Acu-Link.com,2013-04-17 11:20:00,
2013-04-17 07:35:00,51.1,48.9,30.04,North,0,0.0,-999.0,92,-99.99,,,0.01,Acu-Link.com,2013-04-17 11:35:00,
2013-04-17 07:50:00,50.9,46.2,30.06,NW,315,0.0,-999.0,84,-99.99,,,0.01,Acu-Link.com,2013-04-17 11:50:00,
2013-04-17 08:05:00,50.7,44.4,30.07,North,0,0.0,-999.0,79,-99.99,,,0.01,Acu-Link.com,2013-04-17 12:05:00,
2013-04-17 08:20:00,51.8,45.2,30.08,North,0,0.0,-999.0,78,-99.99,,,0.01,Acu-Link.com,2013-04-17 12:20:00,
2013-04-17 08:36:00,53.1,45.0,30.07,NW,315,2.7,-999.0,74,-99.99,,,0.01,Acu-Link.com,2013-04-17 12:36:00,
2013-04-17 08:51:00,53.6,44.8,30.09,ENE,67,3.2,-999.0,72,-99.99,,,0.01,Acu-Link.com,2013-04-17 12:51:00,
2013-04-17 09:06:00,54.1,44.5,30.07,South,180,3.2,-999.0,70,-99.99,,,0.01,Acu-Link.com,2013-04-17 13:06:00,
2013-04-17 09:22:00,54.7,45.5,30.08,WSW,247,5.3,-999.0,71,-99.99,,,0.01,Acu-Link.com,2013-04-17 13:22:00,
2013-04-17 09:37:00,56.7,46.6,30.09,ENE,67,0.0,-999.0,69,-99.99,,,0.01,Acu-Link.com,2013-04-17 13:37:00,
2013-04-17 09:52:00,57.2,45.1,30.09,SE,135,0.0,-999.0,64,-99.99,,,0.01,Acu-Link.com,2013-04-17 13:52:00,
2013-04-17 10:08:00,56.5,43.6,30.08,NW,315,0.0,-999.0,62,-99.99,,,0.01,Acu-Link.com,2013-04-17 14:08:00,
2013-04-17 10:23:00,56.7,43.8,30.08,NE,45,0.0,-999.0,62,-99.99,,,0.01,Acu-Link.com,2013-04-17 14:23:00,
2013-04-17 10:38:00,56.1,43.7,30.09,NE,45,0.0,-999.0,63,-99.99,,,0.01,Acu-Link.com,2013-04-17 14:38:00,
2013-04-17 10:53:00,57.9,43.7,30.09,ENE,67,3.2,-999.0,59,-99.99,,,0.01,Acu-Link.com,2013-04-17 14:53:00,
2013-04-17 11:09:00,57.2,43.4,30.10,NE,45,0.0,-999.0,60,-99.99,,,0.01,Acu-Link.com,2013-04-17 15:09:00,
2013-04-17 11:24:00,58.3,43.6,30.08,East,90,8.3,-999.0,58,-99.99,,,0.01,Acu-Link.com,2013-04-17 15:24:00,
2013-04-17 11:39:00,59.5,43.8,30.09,NE,45,3.7,-999.0,56,-99.99,,,0.01,Acu-Link.com,2013-04-17 15:39:00,
2013-04-17 11:55:00,59.4,42.3,30.08,NE,45,0.0,-999.0,53,-99.99,,,0.01,Acu-Link.com,2013-04-17 15:55:00,
2013-04-17 12:10:00,59.9,42.2,30.08,NNE,22,3.7,-999.0,52,-99.99,,,0.01,Acu-Link.com,2013-04-17 16:10:00,
2013-04-17 12:25:00,59.2,41.6,30.08,North,0,6.8,-999.0,52,-99.99,,,0.01,Acu-Link.com,2013-04-17 16:25:00,
2013-04-17 12:40:00,61.5,43.2,30.09,WSW,247,6.8,-999.0,51,-99.99,,,0.01,Acu-Link.com,2013-04-17 16:40:00,
2013-04-17 12:56:00,60.1,40.9,30.09,NNE,22,11.9,-999.0,49,-99.99,,,0.01,Acu-Link.com,2013-04-17 16:56:00,
2013-04-17 13:11:00,61.7,43.4,30.07,NNE,22,7.8,-999.0,51,-99.99,,,0.01,Acu-Link.com,2013-04-17 17:11:00,
2013-04-17 13:26:00,64.9,42.5,30.06,North,0,4.2,-999.0,44,-99.99,,,0.01,Acu-Link.com,2013-04-17 17:26:00,
2013-04-17 13:42:00,64.4,41.4,30.07,West,270,2.2,-999.0,43,-99.99,,,0.01,Acu-Link.com,2013-04-17 17:42:00,
2013-04-17 13:57:00,63.1,40.8,30.07,NW,315,2.7,-999.0,44,-99.99,,,0.01,Acu-Link.com,2013-04-17 17:57:00,
2013-04-17 14:12:00,68.2,40.9,30.07,ESE,112,1.7,-999.0,37,-99.99,,,0.01,Acu-Link.com,2013-04-17 18:12:00,
2013-04-17 14:27:00,64.4,38.2,30.07,NE,45,5.8,-999.0,38,-99.99,,,0.01,Acu-Link.com,2013-04-17 18:27:00,
2013-04-17 14:43:00,64.8,38.6,30.07,NE,45,7.3,-999.0,38,-99.99,,,0.01,Acu-Link.com,2013-04-17 18:43:00,
2013-04-17 14:58:00,64.0,39.8,30.06,East,90,12.5,-999.0,41,-99.99,,,0.01,Acu-Link.com,2013-04-17 18:58:00,
2013-04-17 15:13:00,65.1,38.9,30.06,WNW,292,2.2,-999.0,38,-99.99,,,0.01,Acu-Link.com,2013-04-17 19:13:00,
2013-04-17 15:28:00,65.1,39.5,30.08,NE,45,2.7,-999.0,39,-99.99,,,0.01,Acu-Link.com,2013-04-17 19:28:00,
2013-04-17 15:43:00,66.4,40.7,30.07,ENE,67,8.9,-999.0,39,-99.99,,,0.01,Acu-Link.com,2013-04-17 19:43:00,
2013-04-17 15:58:00,64.4,38.9,30.08,NE,45,1.7,-999.0,39,-99.99,,,0.01,Acu-Link.com,2013-04-17 19:58:00,
2013-04-17 16:14:00,65.8,38.8,30.07,NE,45,2.2,-999.0,37,-99.99,,,0.01,Acu-Link.com,2013-04-17 20:14:00,
2013-04-17 16:29:00,67.1,39.2,30.07,NE,45,2.2,-999.0,36,-99.99,,,0.01,Acu-Link.com,2013-04-17 20:29:00,
2013-04-17 16:44:00,65.5,39.2,30.07,East,90,10.4,-999.0,38,-99.99,,,0.01,Acu-Link.com,2013-04-17 20:44:00,
2013-04-17 16:59:00,67.5,39.6,30.07,NE,45,2.2,-999.0,36,-99.99,,,0.01,Acu-Link.com,2013-04-17 20:59:00,
2013-04-17 17:15:00,68.5,40.5,30.07,SSW,202,1.7,-999.0,36,-99.99,,,0.01,Acu-Link.com,2013-04-17 21:15:00,
2013-04-17 17:30:00,67.1,38.5,30.08,NE,45,7.3,-999.0,35,-99.99,,,0.01,Acu-Link.com,2013-04-17 21:30:00,
2013-04-17 17:45:00,66.6,39.5,30.09,NNE,22,1.1,-999.0,37,-99.99,,,0.01,Acu-Link.com,2013-04-17 21:45:00,
2013-04-17 18:00:00,68.0,40.0,30.11,ENE,67,0.0,-999.0,36,-99.99,,,0.01,Acu-Link.com,2013-04-17 22:00:00,
2013-04-17 18:31:00,64.4,40.2,30.10,NE,45,0.0,-999.0,41,-99.99,,,0.01,Acu-Link.com,2013-04-17 22:31:00,
2013-04-17 18:46:00,63.5,39.4,30.11,NNW,337,6.8,-999.0,41,-99.99,,,0.01,Acu-Link.com,2013-04-17 22:46:00,
2013-04-17 19:02:00,62.4,39.6,30.12,NE,45,0.0,-999.0,43,-99.99,,,0.01,Acu-Link.com,2013-04-17 23:02:00,
2013-04-17 19:17:00,61.5,38.8,30.11,NNE,22,2.7,-999.0,43,-99.99,,,0.01,Acu-Link.com,2013-04-17 23:17:00,
2013-04-17 19:32:00,60.8,39.3,30.11,NNE,22,1.1,-999.0,45,-99.99,,,0.01,Acu-Link.com,2013-04-17 23:32:00,
2013-04-17 19:48:00,59.7,39.4,30.11,NE,45,0.0,-999.0,47,-99.99,,,0.01,Acu-Link.com,2013-04-17 23:48:00,
2013-04-17 20:03:00,58.6,39.5,30.12,NE,45,0.0,-999.0,49,-99.99,,,0.01,Acu-Link.com,2013-04-18 00:03:00,
2013-04-17 20:18:00,58.3,39.7,30.12,NE,45,0.0,-999.0,50,-99.99,,,0.01,Acu-Link.com,2013-04-18 00:18:00,
2013-04-17 20:33:00,57.7,39.7,30.12,NE,45,1.7,-999.0,51,-99.99,,,0.01,Acu-Link.com,2013-04-18 00:33:00,
2013-04-17 20:49:00,57.6,39.6,30.14,NE,45,0.0,-999.0,51,-99.99,,,0.01,Acu-Link.com,2013-04-18 00:49:00,
2013-04-17 21:04:00,57.4,39.9,30.14,NNE,22,1.7,-999.0,52,-99.99,,,0.01,Acu-Link.com,2013-04-18 01:04:00,
2013-04-17 21:19:00,57.0,39.6,30.15,NNW,337,0.0,-999.0,52,-99.99,,,0.01,Acu-Link.com,2013-04-18 01:19:00,
2013-04-17 21:35:00,57.0,39.6,30.13,NE,45,0.0,-999.0,52,-99.99,,,0.01,Acu-Link.com,2013-04-18 01:35:00,
2013-04-17 21:50:00,56.5,39.1,30.16,ENE,67,0.0,-999.0,52,-99.99,,,0.01,Acu-Link.com,2013-04-18 01:50:00,
2013-04-17 22:05:00,56.7,39.3,30.16,North,0,0.0,-999.0,52,-99.99,,,0.01,Acu-Link.com,2013-04-18 02:05:00,
2013-04-17 22:21:00,56.3,39.4,30.14,NE,45,0.0,-999.0,53,-99.99,,,0.01,Acu-Link.com,2013-04-18 02:21:00,
2013-04-17 22:51:00,54.7,39.3,30.13,NNE,22,0.0,-999.0,56,-99.99,,,0.01,Acu-Link.com,2013-04-18 02:51:00,
2013-04-17 23:06:00,54.9,40.0,30.13,NE,45,0.0,-999.0,57,-99.99,,,0.01,Acu-Link.com,2013-04-18 03:06:00,
2013-04-17 23:22:00,54.0,40.0,30.14,NE,45,0.0,-999.0,59,-99.99,,,0.01,Acu-Link.com,2013-04-18 03:22:00,
2013-04-17 23:37:00,53.8,39.4,30.17,NNE,22,0.0,-999.0,58,-99.99,,,0.01,Acu-Link.com,2013-04-18 03:37:00,
2013-04-17 23:53:00,53.2,38.4,30.15,NE,45,1.1,-999.0,57,-99.99,,,0.01,Acu-Link.com,2013-04-18 03:53:00,